sensor_id;sensor_type;location;lat;lon;timestamp;P1;durP1;ratioP1;P2;durP2;ratioP2
45618;SDS011;31343;47.520;19.144;2023-04-03T00:01:00;8.00;;;4.20;;
45618;SDS011;31343;47.520;19.144;2023-04-03T00:03:26;5.13;;;3.53;;
45618;SDS011;31343;47.520;19.144;2023-04-03T00:05:52;5.78;;;4.32;;
45618;SDS011;31343;47.520;19.144;2023-04-03T00:08:17;7.82;;;3.80;;
45618;SDS011;31343;47.520;19.144;2023-04-03T00:10:43;5.82;;;3.85;;
45618;SDS011;31343;47.520;19.144;2023-04-03T00:13:09;7.53;;;4.40;;
45618;SDS011;31343;47.520;19.144;2023-04-03T00:15:35;6.80;;;4.28;;
45618;SDS011;31343;47.520;19.144;2023-04-03T00:18:03;6.72;;;4.55;;
45618;SDS011;31343;47.520;19.144;2023-04-03T00:20:29;5.80;;;3.72;;
45618;SDS011;31343;47.520;19.144;2023-04-03T00:22:55;6.45;;;4.32;;
45618;SDS011;31343;47.520;19.144;2023-04-03T00:25:21;5.85;;;3.60;;
45618;SDS011;31343;47.520;19.144;2023-04-03T00:27:47;6.28;;;4.47;;
45618;SDS011;31343;47.520;19.144;2023-04-03T00:30:14;5.60;;;4.25;;
45618;SDS011;31343;47.520;19.144;2023-04-03T00:32:41;8.00;;;4.35;;
45618;SDS011;31343;47.520;19.144;2023-04-03T00:35:07;6.80;;;4.47;;
45618;SDS011;31343;47.520;19.144;2023-04-03T00:37:34;6.28;;;4.22;;
45618;SDS011;31343;47.520;19.144;2023-04-03T00:40:00;6.90;;;4.38;;
45618;SDS011;31343;47.520;19.144;2023-04-03T00:42:25;5.90;;;4.25;;
45618;SDS011;31343;47.520;19.144;2023-04-03T00:47:25;6.65;;;4.63;;
45618;SDS011;31343;47.520;19.144;2023-04-03T00:49:52;6.40;;;4.35;;
45618;SDS011;31343;47.520;19.144;2023-04-03T00:52:19;6.63;;;4.78;;
45618;SDS011;31343;47.520;19.144;2023-04-03T00:54:48;6.20;;;3.88;;
45618;SDS011;31343;47.520;19.144;2023-04-03T00:57:18;5.78;;;3.83;;
45618;SDS011;31343;47.520;19.144;2023-04-03T00:59:45;6.35;;;3.78;;
45618;SDS011;31343;47.520;19.144;2023-04-03T01:02:14;6.28;;;4.25;;
45618;SDS011;31343;47.520;19.144;2023-04-03T01:04:40;5.68;;;3.80;;
45618;SDS011;31343;47.520;19.144;2023-04-03T01:09:35;6.40;;;4.10;;
45618;SDS011;31343;47.520;19.144;2023-04-03T01:12:18;6.55;;;4.03;;
45618;SDS011;31343;47.520;19.144;2023-04-03T01:14:52;6.90;;;4.15;;
45618;SDS011;31343;47.520;19.144;2023-04-03T01:25:41;6.43;;;3.65;;
45618;SDS011;31343;47.520;19.144;2023-04-03T01:28:27;5.68;;;3.53;;
45618;SDS011;31343;47.520;19.144;2023-04-03T01:30:58;5.75;;;3.55;;
45618;SDS011;31343;47.520;19.144;2023-04-03T01:33:25;5.50;;;3.65;;
45618;SDS011;31343;47.520;19.144;2023-04-03T01:35:51;6.05;;;3.55;;
45618;SDS011;31343;47.520;19.144;2023-04-03T01:38:17;6.18;;;3.30;;
45618;SDS011;31343;47.520;19.144;2023-04-03T01:40:42;6.75;;;3.70;;
45618;SDS011;31343;47.520;19.144;2023-04-03T01:43:08;7.00;;;3.88;;
45618;SDS011;31343;47.520;19.144;2023-04-03T01:45:34;5.85;;;3.35;;
45618;SDS011;31343;47.520;19.144;2023-04-03T01:48:00;6.05;;;3.78;;
45618;SDS011;31343;47.520;19.144;2023-04-03T01:50:25;5.13;;;3.28;;
45618;SDS011;31343;47.520;19.144;2023-04-03T01:52:51;4.90;;;3.90;;
45618;SDS011;31343;47.520;19.144;2023-04-03T01:55:17;6.95;;;3.50;;
45618;SDS011;31343;47.520;19.144;2023-04-03T01:57:42;4.90;;;2.95;;
45618;SDS011;31343;47.520;19.144;2023-04-03T02:00:08;6.25;;;3.78;;
45618;SDS011;31343;47.520;19.144;2023-04-03T02:02:34;5.82;;;3.45;;
45618;SDS011;31343;47.520;19.144;2023-04-03T02:05:00;4.95;;;3.30;;
45618;SDS011;31343;47.520;19.144;2023-04-03T02:07:26;4.65;;;3.40;;
45618;SDS011;31343;47.520;19.144;2023-04-03T02:09:52;6.38;;;3.63;;
45618;SDS011;31343;47.520;19.144;2023-04-03T02:12:18;6.43;;;3.17;;
45618;SDS011;31343;47.520;19.144;2023-04-03T02:14:43;4.97;;;3.15;;
45618;SDS011;31343;47.520;19.144;2023-04-03T02:17:09;4.63;;;2.95;;
45618;SDS011;31343;47.520;19.144;2023-04-03T02:19:35;4.15;;;2.83;;
45618;SDS011;31343;47.520;19.144;2023-04-03T02:22:02;6.00;;;3.45;;
45618;SDS011;31343;47.520;19.144;2023-04-03T02:24:28;5.82;;;3.70;;
45618;SDS011;31343;47.520;19.144;2023-04-03T02:26:54;5.53;;;3.60;;
45618;SDS011;31343;47.520;19.144;2023-04-03T02:29:20;3.95;;;2.58;;
45618;SDS011;31343;47.520;19.144;2023-04-03T02:31:46;5.03;;;2.78;;
45618;SDS011;31343;47.520;19.144;2023-04-03T02:34:11;4.63;;;2.83;;
45618;SDS011;31343;47.520;19.144;2023-04-03T02:36:37;6.53;;;2.60;;
45618;SDS011;31343;47.520;19.144;2023-04-03T02:39:03;4.75;;;2.60;;
45618;SDS011;31343;47.520;19.144;2023-04-03T02:41:29;7.78;;;3.40;;
45618;SDS011;31343;47.520;19.144;2023-04-03T02:44:00;4.22;;;2.45;;
45618;SDS011;31343;47.520;19.144;2023-04-03T02:46:27;6.82;;;4.30;;
45618;SDS011;31343;47.520;19.144;2023-04-03T02:48:52;3.85;;;2.75;;
45618;SDS011;31343;47.520;19.144;2023-04-03T02:51:18;5.32;;;3.30;;
45618;SDS011;31343;47.520;19.144;2023-04-03T02:53:44;4.72;;;2.58;;
45618;SDS011;31343;47.520;19.144;2023-04-03T02:56:10;3.97;;;2.95;;
45618;SDS011;31343;47.520;19.144;2023-04-03T02:58:36;4.57;;;2.97;;
45618;SDS011;31343;47.520;19.144;2023-04-03T03:01:02;5.25;;;2.95;;
45618;SDS011;31343;47.520;19.144;2023-04-03T03:03:27;5.32;;;3.03;;
45618;SDS011;31343;47.520;19.144;2023-04-03T03:08:30;5.22;;;2.90;;
45618;SDS011;31343;47.520;19.144;2023-04-03T03:10:56;4.50;;;2.97;;
45618;SDS011;31343;47.520;19.144;2023-04-03T03:13:23;4.78;;;2.83;;
45618;SDS011;31343;47.520;19.144;2023-04-03T03:15:50;4.30;;;2.80;;
45618;SDS011;31343;47.520;19.144;2023-04-03T03:18:17;4.80;;;2.58;;
45618;SDS011;31343;47.520;19.144;2023-04-03T03:20:43;6.13;;;3.38;;
45618;SDS011;31343;47.520;19.144;2023-04-03T03:23:09;5.32;;;3.13;;
45618;SDS011;31343;47.520;19.144;2023-04-03T03:25:40;5.88;;;3.25;;
45618;SDS011;31343;47.520;19.144;2023-04-03T03:28:06;4.90;;;2.63;;
45618;SDS011;31343;47.520;19.144;2023-04-03T03:30:33;4.30;;;2.47;;
45618;SDS011;31343;47.520;19.144;2023-04-03T03:33:00;4.82;;;2.97;;
45618;SDS011;31343;47.520;19.144;2023-04-03T03:35:26;4.55;;;2.65;;
45618;SDS011;31343;47.520;19.144;2023-04-03T03:37:52;6.10;;;3.17;;
45618;SDS011;31343;47.520;19.144;2023-04-03T03:40:17;3.90;;;3.17;;
45618;SDS011;31343;47.520;19.144;2023-04-03T03:42:43;4.00;;;2.80;;
45618;SDS011;31343;47.520;19.144;2023-04-03T03:45:09;5.60;;;3.28;;
45618;SDS011;31343;47.520;19.144;2023-04-03T03:47:35;4.75;;;2.95;;
45618;SDS011;31343;47.520;19.144;2023-04-03T03:50:01;4.57;;;3.22;;
45618;SDS011;31343;47.520;19.144;2023-04-03T03:52:27;5.75;;;3.30;;
45618;SDS011;31343;47.520;19.144;2023-04-03T03:54:55;4.78;;;2.90;;
45618;SDS011;31343;47.520;19.144;2023-04-03T03:57:22;5.50;;;2.83;;
45618;SDS011;31343;47.520;19.144;2023-04-03T03:59:47;5.50;;;3.75;;
45618;SDS011;31343;47.520;19.144;2023-04-03T04:02:14;4.82;;;3.08;;
45618;SDS011;31343;47.520;19.144;2023-04-03T04:04:40;5.85;;;3.58;;
45618;SDS011;31343;47.520;19.144;2023-04-03T04:07:05;6.32;;;3.45;;
45618;SDS011;31343;47.520;19.144;2023-04-03T04:09:32;5.53;;;3.35;;
45618;SDS011;31343;47.520;19.144;2023-04-03T04:11:58;4.80;;;3.08;;
45618;SDS011;31343;47.520;19.144;2023-04-03T04:14:24;4.60;;;2.70;;
45618;SDS011;31343;47.520;19.144;2023-04-03T04:16:49;4.28;;;2.88;;
45618;SDS011;31343;47.520;19.144;2023-04-03T04:19:15;5.82;;;3.15;;
45618;SDS011;31343;47.520;19.144;2023-04-03T04:21:41;6.38;;;3.55;;
45618;SDS011;31343;47.520;19.144;2023-04-03T04:24:08;5.43;;;3.33;;
45618;SDS011;31343;47.520;19.144;2023-04-03T04:26:34;6.18;;;3.30;;
45618;SDS011;31343;47.520;19.144;2023-04-03T04:29:00;5.10;;;3.17;;
45618;SDS011;31343;47.520;19.144;2023-04-03T04:31:26;6.78;;;4.32;;
45618;SDS011;31343;47.520;19.144;2023-04-03T04:33:52;5.70;;;3.90;;
45618;SDS011;31343;47.520;19.144;2023-04-03T04:36:18;5.32;;;3.45;;
45618;SDS011;31343;47.520;19.144;2023-04-03T04:38:43;5.95;;;3.53;;
45618;SDS011;31343;47.520;19.144;2023-04-03T04:41:09;5.55;;;3.63;;
45618;SDS011;31343;47.520;19.144;2023-04-03T04:43:35;7.45;;;3.85;;
45618;SDS011;31343;47.520;19.144;2023-04-03T04:46:05;5.50;;;3.28;;
45618;SDS011;31343;47.520;19.144;2023-04-03T04:48:34;5.35;;;3.28;;
45618;SDS011;31343;47.520;19.144;2023-04-03T04:51:00;5.80;;;3.20;;
45618;SDS011;31343;47.520;19.144;2023-04-03T04:53:26;6.10;;;3.40;;
45618;SDS011;31343;47.520;19.144;2023-04-03T04:55:52;5.55;;;3.45;;
45618;SDS011;31343;47.520;19.144;2023-04-03T04:58:18;5.90;;;3.20;;
45618;SDS011;31343;47.520;19.144;2023-04-03T05:00:46;6.13;;;3.75;;
45618;SDS011;31343;47.520;19.144;2023-04-03T05:03:12;6.05;;;3.50;;
45618;SDS011;31343;47.520;19.144;2023-04-03T05:05:39;5.47;;;3.42;;
45618;SDS011;31343;47.520;19.144;2023-04-03T05:08:05;7.38;;;4.47;;
45618;SDS011;31343;47.520;19.144;2023-04-03T05:10:31;4.90;;;3.30;;
45618;SDS011;31343;47.520;19.144;2023-04-03T05:12:58;5.55;;;3.00;;
45618;SDS011;31343;47.520;19.144;2023-04-03T05:15:24;5.10;;;3.38;;
45618;SDS011;31343;47.520;19.144;2023-04-03T05:17:49;6.32;;;3.50;;
45618;SDS011;31343;47.520;19.144;2023-04-03T05:20:16;6.38;;;3.40;;
45618;SDS011;31343;47.520;19.144;2023-04-03T05:22:42;6.82;;;3.80;;
45618;SDS011;31343;47.520;19.144;2023-04-03T05:25:09;6.55;;;3.55;;
45618;SDS011;31343;47.520;19.144;2023-04-03T05:27:35;5.55;;;3.22;;
45618;SDS011;31343;47.520;19.144;2023-04-03T05:30:01;7.18;;;3.95;;
45618;SDS011;31343;47.520;19.144;2023-04-03T05:32:27;5.97;;;3.53;;
45618;SDS011;31343;47.520;19.144;2023-04-03T05:34:53;5.05;;;3.22;;
45618;SDS011;31343;47.520;19.144;2023-04-03T05:37:20;6.63;;;3.20;;
45618;SDS011;31343;47.520;19.144;2023-04-03T05:39:47;6.07;;;3.25;;
45618;SDS011;31343;47.520;19.144;2023-04-03T05:42:12;6.38;;;3.33;;
45618;SDS011;31343;47.520;19.144;2023-04-03T05:44:39;5.85;;;3.47;;
45618;SDS011;31343;47.520;19.144;2023-04-03T05:47:05;6.47;;;3.50;;
45618;SDS011;31343;47.520;19.144;2023-04-03T05:49:31;6.22;;;3.70;;
45618;SDS011;31343;47.520;19.144;2023-04-03T05:51:57;6.50;;;4.30;;
45618;SDS011;31343;47.520;19.144;2023-04-03T05:54:24;6.95;;;3.75;;
45618;SDS011;31343;47.520;19.144;2023-04-03T05:56:52;5.65;;;3.63;;
45618;SDS011;31343;47.520;19.144;2023-04-03T05:59:19;5.20;;;3.38;;
45618;SDS011;31343;47.520;19.144;2023-04-03T06:01:45;6.50;;;3.90;;
45618;SDS011;31343;47.520;19.144;2023-04-03T06:04:12;6.07;;;3.97;;
45618;SDS011;31343;47.520;19.144;2023-04-03T06:06:43;5.53;;;3.83;;
45618;SDS011;31343;47.520;19.144;2023-04-03T06:09:13;5.88;;;3.60;;
45618;SDS011;31343;47.520;19.144;2023-04-03T06:11:39;7.10;;;4.18;;
45618;SDS011;31343;47.520;19.144;2023-04-03T06:14:05;5.28;;;3.63;;
45618;SDS011;31343;47.520;19.144;2023-04-03T06:16:31;6.25;;;3.70;;
45618;SDS011;31343;47.520;19.144;2023-04-03T06:18:57;5.10;;;3.40;;
45618;SDS011;31343;47.520;19.144;2023-04-03T06:21:23;5.10;;;3.17;;
45618;SDS011;31343;47.520;19.144;2023-04-03T06:23:48;4.55;;;3.33;;
45618;SDS011;31343;47.520;19.144;2023-04-03T06:26:14;5.85;;;3.45;;
45618;SDS011;31343;47.520;19.144;2023-04-03T06:28:40;5.50;;;3.17;;
45618;SDS011;31343;47.520;19.144;2023-04-03T06:31:06;6.30;;;3.53;;
45618;SDS011;31343;47.520;19.144;2023-04-03T06:33:32;4.45;;;2.67;;
45618;SDS011;31343;47.520;19.144;2023-04-03T06:35:57;4.68;;;2.50;;
45618;SDS011;31343;47.520;19.144;2023-04-03T06:38:23;3.90;;;3.03;;
45618;SDS011;31343;47.520;19.144;2023-04-03T06:40:50;4.38;;;2.38;;
45618;SDS011;31343;47.520;19.144;2023-04-03T06:43:16;4.70;;;3.00;;
45618;SDS011;31343;47.520;19.144;2023-04-03T06:45:42;3.38;;;2.47;;
45618;SDS011;31343;47.520;19.144;2023-04-03T06:48:08;5.43;;;3.25;;
45618;SDS011;31343;47.520;19.144;2023-04-03T06:50:34;4.43;;;2.90;;
45618;SDS011;31343;47.520;19.144;2023-04-03T06:53:00;5.72;;;3.28;;
45618;SDS011;31343;47.520;19.144;2023-04-03T06:55:26;4.13;;;2.53;;
45618;SDS011;31343;47.520;19.144;2023-04-03T06:57:52;4.45;;;2.63;;
45618;SDS011;31343;47.520;19.144;2023-04-03T07:00:17;4.13;;;3.00;;
45618;SDS011;31343;47.520;19.144;2023-04-03T07:02:44;3.42;;;2.42;;
45618;SDS011;31343;47.520;19.144;2023-04-03T07:05:10;3.65;;;2.30;;
45618;SDS011;31343;47.520;19.144;2023-04-03T07:07:36;5.10;;;2.90;;
45618;SDS011;31343;47.520;19.144;2023-04-03T07:10:03;4.90;;;3.10;;
45618;SDS011;31343;47.520;19.144;2023-04-03T07:12:31;3.03;;;2.25;;
45618;SDS011;31343;47.520;19.144;2023-04-03T07:14:57;3.20;;;1.88;;
45618;SDS011;31343;47.520;19.144;2023-04-03T07:17:23;5.15;;;2.55;;
45618;SDS011;31343;47.520;19.144;2023-04-03T07:19:50;4.03;;;2.10;;
45618;SDS011;31343;47.520;19.144;2023-04-03T07:22:16;3.05;;;1.65;;
45618;SDS011;31343;47.520;19.144;2023-04-03T07:24:42;3.50;;;2.10;;
45618;SDS011;31343;47.520;19.144;2023-04-03T07:27:08;2.83;;;1.55;;
45618;SDS011;31343;47.520;19.144;2023-04-03T07:29:35;3.15;;;1.58;;
45618;SDS011;31343;47.520;19.144;2023-04-03T07:32:01;3.20;;;1.73;;
45618;SDS011;31343;47.520;19.144;2023-04-03T07:34:28;3.10;;;1.60;;
45618;SDS011;31343;47.520;19.144;2023-04-03T07:36:55;3.40;;;2.05;;
45618;SDS011;31343;47.520;19.144;2023-04-03T07:39:21;3.47;;;1.70;;
45618;SDS011;31343;47.520;19.144;2023-04-03T07:41:47;4.63;;;1.90;;
45618;SDS011;31343;47.520;19.144;2023-04-03T07:44:13;3.45;;;1.60;;
45618;SDS011;31343;47.520;19.144;2023-04-03T07:46:38;3.25;;;1.73;;
45618;SDS011;31343;47.520;19.144;2023-04-03T07:49:05;3.38;;;2.13;;
45618;SDS011;31343;47.520;19.144;2023-04-03T07:51:31;3.47;;;2.00;;
45618;SDS011;31343;47.520;19.144;2023-04-03T07:53:57;3.85;;;2.05;;
45618;SDS011;31343;47.520;19.144;2023-04-03T07:56:23;3.47;;;1.73;;
45618;SDS011;31343;47.520;19.144;2023-04-03T07:58:50;3.08;;;1.75;;
45618;SDS011;31343;47.520;19.144;2023-04-03T08:01:15;2.95;;;1.77;;
45618;SDS011;31343;47.520;19.144;2023-04-03T08:03:42;3.45;;;1.83;;
45618;SDS011;31343;47.520;19.144;2023-04-03T08:06:08;3.00;;;1.80;;
45618;SDS011;31343;47.520;19.144;2023-04-03T08:08:34;3.72;;;2.00;;
45618;SDS011;31343;47.520;19.144;2023-04-03T08:11:01;4.65;;;1.95;;
45618;SDS011;31343;47.520;19.144;2023-04-03T08:13:28;2.72;;;1.70;;
45618;SDS011;31343;47.520;19.144;2023-04-03T08:15:55;3.97;;;1.90;;
45618;SDS011;31343;47.520;19.144;2023-04-03T08:18:23;3.10;;;1.85;;
45618;SDS011;31343;47.520;19.144;2023-04-03T08:20:50;4.03;;;2.22;;
45618;SDS011;31343;47.520;19.144;2023-04-03T08:23:16;5.25;;;2.30;;
45618;SDS011;31343;47.520;19.144;2023-04-03T08:25:43;5.00;;;2.28;;
45618;SDS011;31343;47.520;19.144;2023-04-03T08:28:10;3.72;;;1.95;;
45618;SDS011;31343;47.520;19.144;2023-04-03T08:30:38;3.35;;;1.98;;
45618;SDS011;31343;47.520;19.144;2023-04-03T08:33:06;2.90;;;1.88;;
45618;SDS011;31343;47.520;19.144;2023-04-03T08:35:32;2.65;;;1.75;;
45618;SDS011;31343;47.520;19.144;2023-04-03T08:37:58;3.60;;;2.00;;
45618;SDS011;31343;47.520;19.144;2023-04-03T08:40:24;2.58;;;1.60;;
45618;SDS011;31343;47.520;19.144;2023-04-03T08:45:37;3.13;;;1.90;;
45618;SDS011;31343;47.520;19.144;2023-04-03T08:50:47;2.35;;;1.33;;
45618;SDS011;31343;47.520;19.144;2023-04-03T08:53:24;3.90;;;1.77;;
45618;SDS011;31343;47.520;19.144;2023-04-03T08:55:53;5.40;;;2.08;;
45618;SDS011;31343;47.520;19.144;2023-04-03T08:58:30;3.10;;;1.50;;
45618;SDS011;31343;47.520;19.144;2023-04-03T09:01:01;2.72;;;1.60;;
45618;SDS011;31343;47.520;19.144;2023-04-03T09:03:33;2.88;;;1.70;;
45618;SDS011;31343;47.520;19.144;2023-04-03T09:14:22;3.45;;;1.73;;
45618;SDS011;31343;47.520;19.144;2023-04-03T09:17:03;3.47;;;2.63;;
45618;SDS011;31343;47.520;19.144;2023-04-03T09:19:52;2.75;;;1.80;;
45618;SDS011;31343;47.520;19.144;2023-04-03T09:22:24;2.88;;;1.42;;
45618;SDS011;31343;47.520;19.144;2023-04-03T09:24:58;2.70;;;1.65;;
45618;SDS011;31343;47.520;19.144;2023-04-03T09:27:27;2.70;;;1.55;;
45618;SDS011;31343;47.520;19.144;2023-04-03T09:29:53;2.95;;;1.60;;
45618;SDS011;31343;47.520;19.144;2023-04-03T09:34:59;6.78;;;2.05;;
45618;SDS011;31343;47.520;19.144;2023-04-03T09:37:36;3.33;;;1.77;;
45618;SDS011;31343;47.520;19.144;2023-04-03T09:40:06;5.22;;;2.20;;
45618;SDS011;31343;47.520;19.144;2023-04-03T09:42:55;2.80;;;1.63;;
45618;SDS011;31343;47.520;19.144;2023-04-03T09:45:33;3.25;;;1.70;;
45618;SDS011;31343;47.520;19.144;2023-04-03T09:50:33;2.47;;;1.75;;
45618;SDS011;31343;47.520;19.144;2023-04-03T09:53:04;2.95;;;1.60;;
45618;SDS011;31343;47.520;19.144;2023-04-03T09:55:32;2.80;;;1.50;;
45618;SDS011;31343;47.520;19.144;2023-04-03T09:58:06;2.43;;;1.47;;
45618;SDS011;31343;47.520;19.144;2023-04-03T10:00:57;3.03;;;1.60;;
45618;SDS011;31343;47.520;19.144;2023-04-03T10:03:31;3.20;;;1.70;;
45618;SDS011;31343;47.520;19.144;2023-04-03T10:06:00;2.33;;;1.33;;
45618;SDS011;31343;47.520;19.144;2023-04-03T10:08:31;1.83;;;1.30;;
45618;SDS011;31343;47.520;19.144;2023-04-03T10:11:07;2.75;;;1.35;;
45618;SDS011;31343;47.520;19.144;2023-04-03T10:13:35;2.47;;;1.27;;
45618;SDS011;31343;47.520;19.144;2023-04-03T10:16:09;3.03;;;1.55;;
45618;SDS011;31343;47.520;19.144;2023-04-03T10:18:40;2.47;;;1.20;;
45618;SDS011;31343;47.520;19.144;2023-04-03T10:21:55;2.58;;;1.20;;
45618;SDS011;31343;47.520;19.144;2023-04-03T10:24:36;2.15;;;1.20;;
45618;SDS011;31343;47.520;19.144;2023-04-03T10:27:25;2.88;;;1.30;;
45618;SDS011;31343;47.520;19.144;2023-04-03T10:37:54;2.35;;;1.40;;
45618;SDS011;31343;47.520;19.144;2023-04-03T10:40:44;2.65;;;1.33;;
45618;SDS011;31343;47.520;19.144;2023-04-03T10:49:31;2.45;;;1.40;;
45618;SDS011;31343;47.520;19.144;2023-04-03T10:52:39;3.28;;;1.65;;
45618;SDS011;31343;47.520;19.144;2023-04-03T10:57:56;3.38;;;1.35;;
45618;SDS011;31343;47.520;19.144;2023-04-03T11:00:30;2.63;;;1.42;;
45618;SDS011;31343;47.520;19.144;2023-04-03T11:03:10;2.00;;;1.20;;
45618;SDS011;31343;47.520;19.144;2023-04-03T11:05:43;2.55;;;1.02;;
45618;SDS011;31343;47.520;19.144;2023-04-03T11:11:04;2.20;;;1.10;;
45618;SDS011;31343;47.520;19.144;2023-04-03T11:13:45;2.33;;;1.10;;
45618;SDS011;31343;47.520;19.144;2023-04-03T11:16:49;2.50;;;1.40;;
45618;SDS011;31343;47.520;19.144;2023-04-03T11:19:46;2.15;;;1.30;;
45618;SDS011;31343;47.520;19.144;2023-04-03T11:22:59;2.97;;;1.30;;
45618;SDS011;31343;47.520;19.144;2023-04-03T11:25:23;2.42;;;1.30;;
45618;SDS011;31343;47.520;19.144;2023-04-03T11:27:58;2.08;;;1.02;;
45618;SDS011;31343;47.520;19.144;2023-04-03T11:35:43;2.67;;;1.03;;
45618;SDS011;31343;47.520;19.144;2023-04-03T11:38:23;1.60;;;0.95;;
45618;SDS011;31343;47.520;19.144;2023-04-03T11:41:01;2.13;;;0.90;;
45618;SDS011;31343;47.520;19.144;2023-04-03T11:43:30;1.45;;;0.80;;
45618;SDS011;31343;47.520;19.144;2023-04-03T11:46:01;1.13;;;0.90;;
45618;SDS011;31343;47.520;19.144;2023-04-03T11:51:00;2.85;;;1.10;;
45618;SDS011;31343;47.520;19.144;2023-04-03T11:53:34;2.08;;;1.00;;
45618;SDS011;31343;47.520;19.144;2023-04-03T11:56:02;2.35;;;1.10;;
45618;SDS011;31343;47.520;19.144;2023-04-03T11:58:30;1.95;;;1.10;;
45618;SDS011;31343;47.520;19.144;2023-04-03T12:00:59;1.90;;;1.20;;
45618;SDS011;31343;47.520;19.144;2023-04-03T12:06:20;2.40;;;1.20;;
45618;SDS011;31343;47.520;19.144;2023-04-03T12:08:47;2.08;;;1.10;;
45618;SDS011;31343;47.520;19.144;2023-04-03T12:11:29;2.88;;;1.67;;
45618;SDS011;31343;47.520;19.144;2023-04-03T12:29:28;2.38;;;1.50;;
45618;SDS011;31343;47.520;19.144;2023-04-03T12:37:40;2.35;;;1.23;;
45618;SDS011;31343;47.520;19.144;2023-04-03T12:48:37;4.32;;;0.98;;
45618;SDS011;31343;47.520;19.144;2023-04-03T12:51:13;7.57;;;4.78;;
45618;SDS011;31343;47.520;19.144;2023-04-03T12:53:58;10.88;;;5.13;;
45618;SDS011;31343;47.520;19.144;2023-04-03T12:56:28;5.72;;;2.55;;
45618;SDS011;31343;47.520;19.144;2023-04-03T12:59:12;4.57;;;2.42;;
45618;SDS011;31343;47.520;19.144;2023-04-03T13:01:38;3.80;;;2.72;;
45618;SDS011;31343;47.520;19.144;2023-04-03T13:04:04;2.20;;;1.27;;
45618;SDS011;31343;47.520;19.144;2023-04-03T13:06:32;2.75;;;1.20;;
45618;SDS011;31343;47.520;19.144;2023-04-03T13:09:02;2.58;;;1.10;;
45618;SDS011;31343;47.520;19.144;2023-04-03T13:11:36;1.80;;;1.10;;
45618;SDS011;31343;47.520;19.144;2023-04-03T13:14:15;1.63;;;1.10;;
45618;SDS011;31343;47.520;19.144;2023-04-03T13:16:57;1.30;;;0.80;;
45618;SDS011;31343;47.520;19.144;2023-04-03T13:19:25;1.92;;;0.90;;
45618;SDS011;31343;47.520;19.144;2023-04-03T13:22:34;1.63;;;1.00;;
45618;SDS011;31343;47.520;19.144;2023-04-03T13:25:05;2.13;;;1.20;;
45618;SDS011;31343;47.520;19.144;2023-04-03T13:27:34;3.13;;;0.95;;
45618;SDS011;31343;47.520;19.144;2023-04-03T13:30:01;1.77;;;0.88;;
45618;SDS011;31343;47.520;19.144;2023-04-03T13:32:30;1.73;;;1.10;;
45618;SDS011;31343;47.520;19.144;2023-04-03T13:34:57;1.20;;;0.75;;
45618;SDS011;31343;47.520;19.144;2023-04-03T13:37:33;1.52;;;0.90;;
45618;SDS011;31343;47.520;19.144;2023-04-03T13:42:26;1.40;;;1.10;;
45618;SDS011;31343;47.520;19.144;2023-04-03T13:48:39;2.10;;;1.10;;
45618;SDS011;31343;47.520;19.144;2023-04-03T13:50:51;1.80;;;1.00;;
45618;SDS011;31343;47.520;19.144;2023-04-03T13:53:54;1.67;;;1.00;;
45618;SDS011;31343;47.520;19.144;2023-04-03T13:56:27;2.08;;;1.00;;
45618;SDS011;31343;47.520;19.144;2023-04-03T13:59:04;3.55;;;1.67;;
45618;SDS011;31343;47.520;19.144;2023-04-03T14:01:55;3.72;;;1.90;;
45618;SDS011;31343;47.520;19.144;2023-04-03T14:04:56;5.78;;;3.20;;
45618;SDS011;31343;47.520;19.144;2023-04-03T14:07:26;15.07;;;7.80;;
45618;SDS011;31343;47.520;19.144;2023-04-03T14:09:53;9.60;;;4.60;;
45618;SDS011;31343;47.520;19.144;2023-04-03T14:14:51;1.75;;;0.88;;
45618;SDS011;31343;47.520;19.144;2023-04-03T14:17:18;4.75;;;2.50;;
45618;SDS011;31343;47.520;19.144;2023-04-03T14:19:48;2.58;;;1.30;;
45618;SDS011;31343;47.520;19.144;2023-04-03T14:22:17;2.58;;;1.30;;
45618;SDS011;31343;47.520;19.144;2023-04-03T14:24:48;1.70;;;0.93;;
45618;SDS011;31343;47.520;19.144;2023-04-03T14:27:23;2.60;;;0.88;;
45618;SDS011;31343;47.520;19.144;2023-04-03T14:30:00;1.80;;;1.00;;
45618;SDS011;31343;47.520;19.144;2023-04-03T14:32:28;1.80;;;1.15;;
45618;SDS011;31343;47.520;19.144;2023-04-03T14:34:54;3.00;;;1.40;;
45618;SDS011;31343;47.520;19.144;2023-04-03T14:37:21;1.90;;;1.08;;
45618;SDS011;31343;47.520;19.144;2023-04-03T14:39:50;2.92;;;1.23;;
45618;SDS011;31343;47.520;19.144;2023-04-03T14:42:22;2.60;;;1.40;;
45618;SDS011;31343;47.520;19.144;2023-04-03T14:44:50;1.80;;;1.10;;
45618;SDS011;31343;47.520;19.144;2023-04-03T14:47:18;1.98;;;1.20;;
45618;SDS011;31343;47.520;19.144;2023-04-03T14:49:47;2.33;;;1.27;;
45618;SDS011;31343;47.520;19.144;2023-04-03T14:52:23;1.73;;;1.00;;
45618;SDS011;31343;47.520;19.144;2023-04-03T14:54:54;1.88;;;1.10;;
45618;SDS011;31343;47.520;19.144;2023-04-03T14:57:21;2.20;;;1.10;;
45618;SDS011;31343;47.520;19.144;2023-04-03T14:59:50;2.28;;;1.33;;
45618;SDS011;31343;47.520;19.144;2023-04-03T15:02:49;2.22;;;1.27;;
45618;SDS011;31343;47.520;19.144;2023-04-03T15:05:09;2.03;;;1.15;;
45618;SDS011;31343;47.520;19.144;2023-04-03T15:07:37;2.15;;;1.20;;
45618;SDS011;31343;47.520;19.144;2023-04-03T15:12:41;2.05;;;1.23;;
45618;SDS011;31343;47.520;19.144;2023-04-03T15:15:07;2.30;;;1.20;;
45618;SDS011;31343;47.520;19.144;2023-04-03T15:17:33;2.88;;;1.48;;
45618;SDS011;31343;47.520;19.144;2023-04-03T15:20:01;2.17;;;1.20;;
45618;SDS011;31343;47.520;19.144;2023-04-03T15:22:27;2.92;;;1.10;;
45618;SDS011;31343;47.520;19.144;2023-04-03T15:24:52;2.03;;;1.13;;
45618;SDS011;31343;47.520;19.144;2023-04-03T15:27:18;2.25;;;1.00;;
45618;SDS011;31343;47.520;19.144;2023-04-03T15:29:45;3.38;;;1.58;;
45618;SDS011;31343;47.520;19.144;2023-04-03T15:32:11;2.20;;;1.17;;
45618;SDS011;31343;47.520;19.144;2023-04-03T15:34:37;2.92;;;1.20;;
45618;SDS011;31343;47.520;19.144;2023-04-03T15:37:04;2.92;;;1.83;;
45618;SDS011;31343;47.520;19.144;2023-04-03T15:39:30;2.42;;;1.15;;
45618;SDS011;31343;47.520;19.144;2023-04-03T15:41:57;2.50;;;1.10;;
45618;SDS011;31343;47.520;19.144;2023-04-03T15:44:30;4.53;;;1.15;;
45618;SDS011;31343;47.520;19.144;2023-04-03T15:46:58;3.13;;;1.20;;
45618;SDS011;31343;47.520;19.144;2023-04-03T15:49:24;20.35;;;8.70;;
45618;SDS011;31343;47.520;19.144;2023-04-03T15:51:52;3.60;;;2.10;;
45618;SDS011;31343;47.520;19.144;2023-04-03T15:54:18;4.40;;;2.03;;
45618;SDS011;31343;47.520;19.144;2023-04-03T15:56:44;2.33;;;1.30;;
45618;SDS011;31343;47.520;19.144;2023-04-03T15:59:10;2.55;;;1.20;;
45618;SDS011;31343;47.520;19.144;2023-04-03T16:01:36;2.50;;;1.45;;
45618;SDS011;31343;47.520;19.144;2023-04-03T16:04:04;3.83;;;1.50;;
45618;SDS011;31343;47.520;19.144;2023-04-03T16:06:32;3.90;;;1.63;;
45618;SDS011;31343;47.520;19.144;2023-04-03T16:08:58;2.55;;;1.30;;
45618;SDS011;31343;47.520;19.144;2023-04-03T16:11:25;5.30;;;2.10;;
45618;SDS011;31343;47.520;19.144;2023-04-03T16:13:52;3.67;;;2.35;;
45618;SDS011;31343;47.520;19.144;2023-04-03T16:16:18;2.58;;;1.33;;
45618;SDS011;31343;47.520;19.144;2023-04-03T16:18:45;2.50;;;1.23;;
45618;SDS011;31343;47.520;19.144;2023-04-03T16:21:12;2.17;;;1.15;;
45618;SDS011;31343;47.520;19.144;2023-04-03T16:23:39;2.72;;;1.30;;
45618;SDS011;31343;47.520;19.144;2023-04-03T16:26:05;3.22;;;1.52;;
45618;SDS011;31343;47.520;19.144;2023-04-03T16:28:31;3.75;;;2.05;;
45618;SDS011;31343;47.520;19.144;2023-04-03T16:30:57;6.82;;;2.50;;